Time;durP1;ratioP1;P1;durP2;ratioP2;P2;SDS_P1;SDS_P2;PMS_P1;PMS_P2;Temp;Humidity;BMP_temperature;BMP_pressure;BME280_temperature;BME280_humidity;BME280_pressure;Samples;Min_cycle;Max_cycle;Signal;HPM_P1;HPM_P2
2021/12/07 00:00:31;;;;;;;2.73;2.27;;;2.90;99.90;;;;;;5035552;28;20168;-44
2021/12/07 00:02:57;;;;;;;1.23;1.10;;;2.90;99.90;;;;;;5053412;28;20229;-45
2021/12/07 00:05:23;;;;;;;2.90;2.60;;;2.90;99.90;;;;;;5053723;28;20180;-48
2021/12/07 00:07:48;;;;;;;3.23;2.50;;;2.80;99.90;;;;;;5053330;28;20187;-44
2021/12/07 00:10:16;;;;;;;3.00;2.70;;;2.90;99.90;;;;;;5053284;28;20176;-46
2021/12/07 00:12:44;;;;;;;3.23;2.70;;;2.90;99.90;;;;;;5053426;28;20202;-47
2021/12/07 00:15:13;;;;;;;3.37;2.80;;;2.90;99.90;;;;;;5053395;28;20188;-49
2021/12/07 00:17:39;;;;;;;3.40;2.27;;;2.90;99.90;;;;;;5035111;28;20740;-45
2021/12/07 00:20:11;;;;;;;5.50;3.53;;;2.90;99.90;;;;;;5053417;28;20187;-48
2021/12/07 00:22:38;;;;;;;4.60;3.10;;;2.90;99.90;;;;;;5053502;28;20207;-45
2021/12/07 00:25:05;;;;;;;4.60;3.70;;;2.90;99.90;;;;;;5054215;28;20176;-43
2021/12/07 00:27:31;;;;;;;4.60;3.80;;;2.90;99.90;;;;;;5057369;28;20187;-48
2021/12/07 00:29:56;;;;;;;6.10;4.47;;;3.00;99.90;;;;;;5057212;28;20258;-45
2021/12/07 00:32:31;;;;;;;4.23;3.20;;;3.00;99.90;;;;;;5057068;28;20549;-46
2021/12/07 00:37:44;;;;;;;5.23;4.27;;;3.10;99.90;;;;;;5057009;28;20221;-47
2021/12/07 00:40:13;;;;;;;5.07;3.53;;;3.10;99.90;;;;;;5057183;28;20192;-45
2021/12/07 00:42:39;;;;;;;3.70;2.80;;;3.10;99.90;;;;;;5056923;28;20704;-47
2021/12/07 00:45:08;;;;;;;7.03;5.77;;;3.20;99.90;;;;;;5057042;28;20180;-46
2021/12/07 00:47:34;;;;;;;6.53;4.77;;;3.20;99.90;;;;;;5057584;28;20180;-49
2021/12/07 00:50:00;;;;;;;9.40;6.27;;;3.20;99.90;;;;;;5057526;28;20199;-47
2021/12/07 00:52:25;;;;;;;10.20;5.93;;;3.30;99.90;;;;;;5056880;28;20670;-48
2021/12/07 00:54:51;;;;;;;7.77;6.17;;;3.40;99.90;;;;;;5038818;28;20596;-48
2021/12/07 00:57:17;;;;;;;12.23;7.80;;;3.40;99.90;;;;;;5056628;28;20204;-46
2021/12/07 00:59:42;;;;;;;6.57;5.20;;;3.40;99.90;;;;;;5056877;28;20179;-45
2021/12/07 01:02:08;;;;;;;7.07;4.37;;;3.40;99.90;;;;;;5038698;28;20203;-48
2021/12/07 01:04:34;;;;;;;12.43;7.83;;;3.50;99.90;;;;;;5039027;28;20544;-46
2021/12/07 01:07:04;;;;;;;15.80;7.80;;;3.40;99.90;;;;;;5056552;28;20214;-47
2021/12/07 01:09:41;;;;;;;9.30;6.17;;;3.50;99.90;;;;;;5038694;28;20196;-47
2021/12/07 01:25:39;;;;;;;8.40;5.60;;;3.70;99.90;;;;;;5056265;28;20171;-48
2021/12/07 01:28:18;;;;;;;8.00;5.37;;;3.70;99.90;;;;;;5039014;28;20554;-48
2021/12/07 01:30:53;;;;;;;7.93;4.23;;;3.70;99.90;;;;;;5056906;28;20175;-47
2021/12/07 01:33:42;;;;;;;7.07;4.43;;;3.70;99.90;;;;;;5056434;28;20164;-47
2021/12/07 01:41:23;;;;;;;7.73;3.20;;;3.80;99.90;;;;;;5056786;28;20198;-47
2021/12/07 02:00:04;;;;;;;8.07;3.67;;;4.00;99.90;;;;;;5055967;28;20607;-46
2021/12/07 02:02:29;;;;;;;11.13;4.50;;;4.00;99.90;;;;;;5055727;28;20282;-47
2021/12/07 02:04:56;;;;;;;14.40;4.83;;;4.00;99.90;;;;;;5037810;28;20707;-45
2021/12/07 02:07:23;;;;;;;16.53;5.60;;;4.00;99.90;;;;;;5037708;28;20184;-46
2021/12/07 02:09:54;;;;;;;13.10;5.43;;;4.10;99.90;;;;;;5037844;28;20611;-46
2021/12/07 02:12:21;;;;;;;15.20;6.83;;;4.10;99.90;;;;;;5055786;28;20212;-46
2021/12/07 02:14:46;;;;;;;9.07;4.27;;;4.10;99.90;;;;;;5055449;28;20176;-46
2021/12/07 02:17:17;;;;;;;7.90;3.97;;;4.20;99.90;;;;;;5055620;28;20298;-47
2021/12/07 02:19:43;;;;;;;17.70;6.90;;;4.20;99.90;;;;;;5037399;28;20183;-48
2021/12/07 02:22:10;;;;;;;16.20;5.30;;;4.20;99.90;;;;;;5055429;28;20199;-46
2021/12/07 02:24:36;;;;;;;19.77;5.27;;;4.20;99.90;;;;;;5055408;28;20220;-46
2021/12/07 02:27:03;;;;;;;5.77;3.07;;;4.20;99.90;;;;;;5037184;28;20180;-48
2021/12/07 02:29:28;;;;;;;22.07;4.70;;;4.20;99.90;;;;;;5054986;28;20183;-45
2021/12/07 02:31:55;;;;;;;10.00;4.43;;;4.30;99.90;;;;;;5055187;28;20612;-47
2021/12/07 02:34:23;;;;;;;14.30;6.27;;;4.20;99.90;;;;;;5055240;28;20637;-45
2021/12/07 02:36:50;;;;;;;18.70;5.30;;;4.20;99.90;;;;;;5054892;28;20234;-47
2021/12/07 02:39:16;;;;;;;18.03;4.90;;;4.30;99.90;;;;;;5054944;28;20173;-46
2021/12/07 02:41:41;;;;;;;12.47;4.17;;;4.30;99.90;;;;;;5054969;28;20300;-46
2021/12/07 02:44:08;;;;;;;13.73;4.83;;;4.30;99.90;;;;;;5055340;28;20615;-46
2021/12/07 02:46:35;;;;;;;5.80;2.70;;;4.30;99.90;;;;;;5054785;28;20238;-46
2021/12/07 02:49:03;;;;;;;17.97;5.13;;;4.20;99.90;;;;;;5054355;28;20188;-46
2021/12/07 02:51:29;;;;;;;12.70;5.07;;;4.20;99.90;;;;;;5059011;28;20204;-45
2021/12/07 02:53:56;;;;;;;15.53;5.10;;;4.20;99.90;;;;;;5057373;28;20187;-45
2021/12/07 02:56:21;;;;;;;15.23;5.33;;;4.20;99.90;;;;;;5054777;28;20218;-45
2021/12/07 02:58:47;;;;;;;18.17;4.37;;;4.20;99.90;;;;;;5054911;28;20271;-45
2021/12/07 03:01:23;;;;;;;13.20;4.33;;;4.20;99.90;;;;;;5036850;28;20783;-45
2021/12/07 03:06:38;;;;;;;15.90;3.93;;;4.10;99.90;;;;;;5054804;28;20171;-47
2021/12/07 03:26:16;;;;;;;12.63;3.70;;;3.90;99.90;;;;;;5054324;28;20213;-47
2021/12/07 03:28:44;;;;;;;9.87;2.87;;;3.90;99.90;;;;;;5051328;28;20247;-47
2021/12/07 03:31:11;;;;;;;8.73;3.10;;;3.90;99.90;;;;;;5054420;28;20195;-46
2021/12/07 03:33:38;;;;;;;10.23;4.00;;;3.90;99.90;;;;;;5054456;28;20180;-46
2021/12/07 03:36:06;;;;;;;13.10;4.20;;;3.90;99.90;;;;;;5054168;28;20803;-48
2021/12/07 03:38:32;;;;;;;10.00;3.70;;;3.90;99.90;;;;;;5036575;28;20574;-48
2021/12/07 03:40:58;;;;;;;12.07;3.90;;;3.90;99.90;;;;;;5054871;28;20176;-45
2021/12/07 03:43:24;;;;;;;11.00;3.17;;;4.00;99.90;;;;;;5054152;28;20267;-46
2021/12/07 03:45:50;;;;;;;10.67;3.63;;;3.90;99.90;;;;;;5054417;28;20196;-47
2021/12/07 03:48:16;;;;;;;13.33;3.50;;;3.90;99.90;;;;;;5054246;28;20234;-46
2021/12/07 03:50:42;;;;;;;13.80;3.63;;;3.90;99.90;;;;;;5053998;28;20187;-46
2021/12/07 03:53:09;;;;;;;10.07;2.60;;;4.00;99.90;;;;;;5054041;28;20187;-46
2021/12/07 03:55:34;;;;;;;17.10;4.00;;;4.00;99.90;;;;;;5053993;28;20180;-46
2021/12/07 03:58:00;;;;;;;8.40;3.57;;;4.00;99.90;;;;;;5054055;28;20692;-47
2021/12/07 04:00:28;;;;;;;4.87;2.80;;;3.90;99.90;;;;;;5036471;28;20179;-47
2021/12/07 04:02:54;;;;;;;7.13;2.60;;;4.00;99.90;;;;;;5053999;28;20201;-46
2021/12/07 04:05:22;;;;;;;17.43;4.13;;;4.00;99.90;;;;;;5054247;28;20575;-48
2021/12/07 04:07:49;;;;;;;14.07;3.00;;;4.00;99.90;;;;;;5053936;28;20191;-47
2021/12/07 04:10:18;;;;;;;9.67;3.47;;;4.00;99.90;;;;;;5054001;28;20188;-47
2021/12/07 04:12:44;;;;;;;9.43;3.87;;;4.00;99.90;;;;;;5036624;28;20204;-48
2021/12/07 04:15:13;;;;;;;11.97;3.53;;;4.00;99.90;;;;;;5036274;28;20636;-46
2021/12/07 04:17:39;;;;;;;16.23;4.00;;;3.90;99.90;;;;;;5053653;28;20211;-47
2021/12/07 04:20:10;;;;;;;7.17;3.57;;;4.00;99.90;;;;;;5054307;28;20638;-47
2021/12/07 04:22:37;;;;;;;10.63;3.07;;;4.00;99.90;;;;;;5054029;28;20235;-47
2021/12/07 04:25:06;;;;;;;11.80;4.20;;;3.90;99.90;;;;;;5053801;28;20176;-48
2021/12/07 04:27:37;;;;;;;7.53;3.37;;;3.90;99.90;;;;;;5036325;28;20191;-48
2021/12/07 04:30:24;;;;;;;13.30;3.63;;;3.90;99.90;;;;;;5053752;28;20200;-46
2021/12/07 04:32:51;;;;;;;3.40;2.00;;;3.90;99.90;;;;;;5052974;28;20220;-47
2021/12/07 04:35:18;;;;;;;11.43;2.97;;;3.90;99.90;;;;;;5053756;28;20590;-46
2021/12/07 04:37:43;;;;;;;8.63;3.30;;;3.90;99.90;;;;;;5053365;28;20222;-48
2021/12/07 04:40:12;;;;;;;10.70;3.70;;;3.90;99.90;;;;;;5053619;28;20593;-46
2021/12/07 04:42:38;;;;;;;13.27;4.23;;;3.80;99.90;;;;;;5053365;28;20289;-46
2021/12/07 04:45:08;;;;;;;12.07;3.30;;;3.80;99.90;;;;;;5035711;28;20204;-46
2021/12/07 04:47:54;;;;;;;13.47;3.17;;;3.80;99.90;;;;;;5054219;28;20263;-46
2021/12/07 04:57:38;;;;;;;12.80;3.57;;;3.70;99.90;;;;;;5053929;28;20683;-48
2021/12/07 04:58:28;;;;;;;11.30;3.97;;;3.70;99.90;;;;;;5053008;28;20695;-48
2021/12/07 05:00:54;;;;;;;10.20;3.13;;;3.70;99.90;;;;;;5053369;28;20179;-47
2021/12/07 05:03:20;;;;;;;15.17;3.87;;;3.70;99.90;;;;;;5036753;28;20196;-48
2021/12/07 05:05:51;;;;;;;10.73;4.23;;;3.70;99.90;;;;;;5053474;28;20633;-46
2021/12/07 05:08:32;;;;;;;10.67;3.27;;;3.70;99.90;;;;;;5035793;28;20183;-48
2021/12/07 05:14:16;;;;;;;11.33;4.27;;;3.70;99.90;;;;;;5057033;28;20175;-47
2021/12/07 05:16:41;;;;;;;7.70;3.30;;;3.80;99.90;;;;;;5051194;28;20370;-48
2021/12/07 05:23:53;;;;;;;14.27;4.17;;;3.70;99.90;;;;;;5056463;28;20556;-46
2021/12/07 05:24:48;;;;;;;13.30;4.03;;;3.70;99.90;;;;;;5056851;28;20226;-49
2021/12/07 05:38:12;;;;;;;9.10;3.70;;;3.50;99.90;;;;;;5015599;28;20307;-48
2021/12/07 05:40:38;;;;;;;10.47;3.27;;;3.40;99.90;;;;;;5056524;28;20669;-48
2021/12/07 05:43:04;;;;;;;10.70;3.63;;;3.30;99.90;;;;;;5056478;28;20230;-48
2021/12/07 05:45:33;;;;;;;12.80;3.93;;;3.30;99.90;;;;;;5056175;28;20190;-47
2021/12/07 05:48:00;;;;;;;10.20;4.17;;;3.30;99.90;;;;;;5038351;28;20570;-46
2021/12/07 05:50:28;;;;;;;10.47;3.40;;;3.20;99.90;;;;;;5056821;28;20169;-46
2021/12/07 05:52:54;;;;;;;11.73;3.90;;;3.20;99.90;;;;;;5057037;28;20207;-46
2021/12/07 05:55:20;;;;;;;10.60;3.60;;;3.20;99.90;;;;;;5042248;28;20178;-46
2021/12/07 05:57:46;;;;;;;11.83;4.27;;;3.20;99.90;;;;;;5064470;28;20200;-46
2021/12/07 06:00:23;;;;;;;18.77;4.03;;;3.20;99.90;;;;;;5023876;28;20190;-46
2021/12/07 06:02:50;;;;;;;13.73;4.30;;;3.10;99.90;;;;;;5037846;28;20198;-47
2021/12/07 06:05:16;;;;;;;14.40;3.63;;;3.10;99.90;;;;;;5055668;28;20178;-48
2021/12/07 06:07:41;;;;;;;11.97;3.57;;;3.10;99.90;;;;;;5055511;28;20504;-48
2021/12/07 06:10:07;;;;;;;13.83;3.13;;;3.10;99.90;;;;;;5055602;28;20178;-47
2021/12/07 06:12:33;;;;;;;14.10;3.87;;;3.10;99.90;;;;;;5037743;28;20219;-47
2021/12/07 06:14:59;;;;;;;11.47;3.50;;;3.10;99.90;;;;;;5055467;28;20221;-48
2021/12/07 06:17:24;;;;;;;6.07;2.40;;;3.10;99.90;;;;;;5037454;28;20215;-46
2021/12/07 06:19:50;;;;;;;13.20;3.07;;;3.10;99.90;;;;;;5055542;28;20697;-48
2021/12/07 06:22:16;;;;;;;12.73;3.40;;;3.10;99.90;;;;;;5054560;28;20203;-47
2021/12/07 06:24:41;;;;;;;10.20;3.20;;;3.00;99.90;;;;;;5037266;28;20174;-47
2021/12/07 06:27:07;;;;;;;8.63;2.87;;;3.00;99.90;;;;;;5055108;28;20188;-47
2021/12/07 06:29:32;;;;;;;9.40;2.97;;;3.00;99.90;;;;;;5055429;28;20270;-46
2021/12/07 06:31:58;;;;;;;8.83;3.00;;;2.90;99.90;;;;;;5055131;28;20200;-47
2021/12/07 06:34:24;;;;;;;15.27;3.83;;;2.90;99.90;;;;;;5055425;28;20164;-46
2021/12/07 06:36:50;;;;;;;8.87;3.37;;;2.80;99.90;;;;;;5054865;28;20280;-47
2021/12/07 06:39:15;;;;;;;9.57;3.83;;;2.80;99.90;;;;;;5037743;28;20185;-47
2021/12/07 06:41:41;;;;;;;9.13;3.53;;;2.70;99.90;;;;;;5053549;28;20195;-47
2021/12/07 06:44:07;;;;;;;13.90;4.47;;;2.70;99.90;;;;;;5054985;28;20585;-46
2021/12/07 06:46:33;;;;;;;12.57;3.20;;;2.70;99.90;;;;;;5055059;28;20276;-46
2021/12/07 06:48:58;;;;;;;12.67;4.13;;;2.70;99.90;;;;;;5036897;28;20642;-46
2021/12/07 06:51:24;;;;;;;10.87;4.63;;;2.70;99.90;;;;;;5055644;28;20206;-45
2021/12/07 06:53:49;;;;;;;12.17;4.07;;;2.70;99.90;;;;;;5056374;28;20189;-47
2021/12/07 06:56:15;;;;;;;17.80;3.20;;;2.70;99.90;;;;;;5056607;28;20206;-47
2021/12/07 06:58:41;;;;;;;10.60;4.13;;;2.60;99.90;;;;;;5057076;28;20186;-47
2021/12/07 07:01:10;;;;;;;15.83;4.90;;;2.60;99.90;;;;;;5057054;28;20195;-47
2021/12/07 07:03:36;;;;;;;16.57;4.17;;;2.60;99.90;;;;;;5057400;28;20213;-45
2021/12/07 07:06:03;;;;;;;26.97;9.63;;;2.50;99.90;;;;;;5038912;28;20271;-45
2021/12/07 07:08:29;;;;;;;13.40;6.07;;;2.50;99.90;;;;;;5057101;28;20175;-47
2021/12/07 07:10:55;;;;;;;18.27;4.73;;;2.50;99.90;;;;;;5056842;28;20498;-45
2021/12/07 07:13:20;;;;;;;13.50;6.10;;;2.40;99.90;;;;;;5055588;28;20211;-48
2021/12/07 07:15:46;;;;;;;26.37;12.00;;;2.40;99.90;;;;;;5056543;28;20574;-48
2021/12/07 07:18:12;;;;;;;17.10;7.07;;;2.40;99.90;;;;;;5056922;28;20178;-45
2021/12/07 07:20:38;;;;;;;17.37;8.73;;;2.30;99.90;;;;;;5056876;28;20179;-47
2021/12/07 07:23:04;;;;;;;14.47;5.50;;;2.30;99.90;;;;;;5056492;28;20210;-47
2021/12/07 07:25:31;;;;;;;12.27;5.07;;;2.20;99.90;;;;;;5038416;28;20634;-46
2021/12/07 07:27:58;;;;;;;14.03;4.73;;;2.20;99.90;;;;;;5056434;28;20196;-45
2021/12/07 07:30:24;;;;;;;14.70;5.60;;;2.20;99.90;;;;;;5056273;28;20413;-47
2021/12/07 07:32:50;;;;;;;12.40;4.97;;;2.20;99.90;;;;;;5056403;28;20516;-45
2021/12/07 07:35:16;;;;;;;15.37;4.60;;;2.20;99.90;;;;;;5056172;28;20232;-46
2021/12/07 07:37:42;;;;;;;20.53;5.33;;;2.20;99.90;;;;;;5038286;28;20226;-48
2021/12/07 07:40:12;;;;;;;16.33;4.83;;;2.20;99.90;;;;;;5056131;28;20897;-46
2021/12/07 07:42:37;;;;;;;8.70;3.00;;;2.20;99.90;;;;;;5056234;28;20202;-45
2021/12/07 07:45:04;;;;;;;5.10;2.47;;;2.20;99.90;;;;;;5056101;28;20409;-46
2021/12/07 07:47:30;;;;;;;7.60;2.80;;;2.20;99.90;;;;;;5056529;28;20231;-46
2021/12/07 07:49:55;;;;;;;10.17;3.20;;;2.20;99.90;;;;;;5059025;28;20416;-40
2021/12/07 07:52:22;;;;;;;16.57;2.80;;;2.20;99.90;;;;;;5054765;28;20553;-39
2021/12/07 07:54:47;;;;;;;8.60;2.67;;;2.20;99.90;;;;;;5053942;28;20542;-41
2021/12/07 07:57:13;;;;;;;10.03;2.70;;;2.20;99.90;;;;;;5053584;28;20208;-39
2021/12/07 07:59:39;;;;;;;14.53;3.43;;;2.20;99.90;;;;;;5053699;28;20185;-40
2021/12/07 08:02:07;;;;;;;15.07;2.70;;;2.30;99.90;;;;;;5053427;28;20284;-41
2021/12/07 08:04:32;;;;;;;14.17;2.50;;;2.30;99.90;;;;;;5053614;28;20458;-41
2021/12/07 08:06:58;;;;;;;8.90;3.00;;;2.30;99.90;;;;;;5053344;28;20657;-41
2021/12/07 08:09:24;;;;;;;10.47;3.43;;;2.40;99.90;;;;;;5035465;28;20189;-40
2021/12/07 08:11:49;;;;;;;11.37;3.03;;;2.40;99.90;;;;;;5053350;28;20286;-41
2021/12/07 08:14:18;;;;;;;18.83;3.20;;;2.50;99.90;;;;;;5053557;28;20176;-42
2021/12/07 08:16:45;;;;;;;16.13;3.30;;;2.60;99.90;;;;;;5035203;28;20209;-42
2021/12/07 08:19:11;;;;;;;10.90;3.03;;;2.60;99.90;;;;;;5053240;28;20412;-40
2021/12/07 08:21:37;;;;;;;14.53;3.70;;;2.60;99.90;;;;;;5035199;28;20526;-40
2021/12/07 08:24:03;;;;;;;15.40;3.30;;;2.60;99.90;;;;;;5053316;28;20621;-42
2021/12/07 08:26:29;;;;;;;14.80;3.23;;;2.70;99.90;;;;;;5053115;28;20177;-40
2021/12/07 08:28:57;;;;;;;14.90;3.40;;;2.70;99.90;;;;;;5053091;28;20913;-42
2021/12/07 08:31:23;;;;;;;17.43;3.50;;;2.60;99.90;;;;;;5035719;28;20788;-44
2021/12/07 08:33:49;;;;;;;13.60;3.30;;;2.60;99.90;;;;;;5053256;28;20647;-40
2021/12/07 08:36:17;;;;;;;9.07;3.63;;;2.70;99.90;;;;;;5053495;28;20464;-41
2021/12/07 08:38:44;;;;;;;20.83;4.17;;;2.70;99.90;;;;;;5034912;28;20613;-43
2021/12/07 08:41:10;;;;;;;14.40;5.07;;;2.70;99.90;;;;;;5053171;28;20442;-42
2021/12/07 08:43:38;;;;;;;21.97;5.60;;;2.70;99.90;;;;;;5053206;28;20234;-42
2021/12/07 08:46:04;;;;;;;25.97;10.30;;;2.70;99.90;;;;;;5053986;28;20458;-40
2021/12/07 08:48:30;;;;;;;26.77;9.23;;;2.80;99.90;;;;;;5056968;28;20178;-40
2021/12/07 08:50:57;;;;;;;24.50;8.73;;;2.80;99.90;;;;;;5057508;28;20183;-41
2021/12/07 08:53:24;;;;;;;21.83;6.97;;;2.80;99.90;;;;;;5057565;28;20179;-42
2021/12/07 09:01:25;;;;;;;18.27;4.53;;;2.90;99.90;;;;;;5070745;28;20451;-40
2021/12/07 09:03:52;;;;;;;10.13;3.33;;;2.90;99.90;;;;;;5058761;28;20413;-43
2021/12/07 09:06:18;;;;;;;11.23;4.37;;;2.90;99.90;;;;;;5057074;28;20212;-42
2021/12/07 09:08:44;;;;;;;13.57;4.67;;;3.00;99.90;;;;;;5056612;28;20893;-40
2021/12/07 09:11:12;;;;;;;17.33;5.10;;;3.10;99.90;;;;;;5056554;28;20202;-43
2021/12/07 09:13:39;;;;;;;12.03;3.50;;;3.10;99.90;;;;;;5056501;28;20173;-43
2021/12/07 09:16:06;;;;;;;9.33;3.90;;;3.20;99.90;;;;;;5056429;28;20183;-41
2021/12/07 09:18:32;;;;;;;12.50;3.60;;;3.30;99.90;;;;;;5056978;28;20184;-41
2021/12/07 09:20:59;;;;;;;16.10;3.60;;;3.30;99.90;;;;;;5038446;28;20647;-41
2021/12/07 09:23:25;;;;;;;10.47;3.50;;;3.40;99.90;;;;;;5056646;28;20232;-42
2021/12/07 09:25:52;;;;;;;13.80;4.27;;;3.40;99.90;;;;;;5038441;28;20203;-41
2021/12/07 09:28:18;;;;;;;6.90;3.53;;;3.50;99.90;;;;;;5038432;28;20178;-42
2021/12/07 09:30:51;;;;;;;14.27;3.60;;;3.60;99.90;;;;;;5056093;28;20435;-40
2021/12/07 09:33:18;;;;;;;10.70;3.67;;;3.60;99.90;;;;;;5056417;28;20213;-44
2021/12/07 09:35:43;;;;;;;8.93;3.23;;;3.70;99.90;;;;;;5056322;28;20409;-42
2021/12/07 09:38:09;;;;;;;13.83;3.93;;;3.80;99.90;;;;;;5037928;28;20854;-43
2021/12/07 09:40:35;;;;;;;10.37;3.00;;;3.90;99.90;;;;;;5056088;28;20228;-43
2021/12/07 09:43:00;;;;;;;16.40;3.70;;;3.90;99.90;;;;;;5055879;28;20201;-42
2021/12/07 09:45:30;;;;;;;13.30;3.63;;;4.00;99.90;;;;;;5055861;28;20210;-42
2021/12/07 09:47:59;;;;;;;14.90;3.57;;;4.10;99.90;;;;;;5056717;28;20182;-42
2021/12/07 09:50:25;;;;;;;13.73;4.07;;;4.10;99.90;;;;;;5055929;28;20529;-42
2021/12/07 09:52:51;;;;;;;14.87;4.43;;;4.20;99.90;;;;;;5056040;28;20226;-42
2021/12/07 09:55:17;;;;;;;11.23;4.40;;;4.20;99.90;;;;;;5055861;28;20679;-43
2021/12/07 09:57:44;;;;;;;12.50;4.03;;;4.20;99.90;;;;;;5055580;28;20198;-43
2021/12/07 10:00:20;;;;;;;11.17;3.07;;;4.30;99.90;;;;;;5055823;28;20190;-42
2021/12/07 10:02:46;;;;;;;6.90;2.97;;;4.40;99.90;;;;;;5055825;28;20234;-42
2021/12/07 10:05:13;;;;;;;8.13;3.10;;;4.40;99.90;;;;;;5056167;28;20186;-41
2021/12/07 10:07:39;;;;;;;17.70;3.90;;;4.50;99.90;;;;;;5038279;28;20195;-39
2021/12/07 10:10:16;;;;;;;12.53;3.43;;;4.50;99.90;;;;;;5055783;28;20179;-40
2021/12/07 10:12:42;;;;;;;9.83;3.37;;;4.60;99.90;;;;;;5055456;28;20286;-41
2021/12/07 10:15:09;;;;;;;10.17;3.37;;;4.60;99.90;;;;;;5055345;28;20271;-41
2021/12/07 10:17:42;;;;;;;12.73;2.47;;;4.70;99.90;;;;;;5055188;28;20204;-42
2021/12/07 10:20:37;;;;;;;15.57;4.13;;;4.60;99.90;;;;;;5037503;28;20546;-39
2021/12/07 10:23:31;;;;;;;11.27;3.03;;;4.70;99.90;;;;;;5037387;28;20238;-42
2021/12/07 10:26:06;;;;;;;12.43;3.33;;;4.80;99.90;;;;;;5029750;28;20185;-42
2021/12/07 10:28:52;;;;;;;14.83;2.93;;;4.80;99.90;;;;;;5038325;28;20164;-42
2021/12/07 10:31:26;;;;;;;14.37;3.50;;;4.90;99.90;;;;;;5054963;28;20185;-41
2021/12/07 10:33:59;;;;;;;12.43;4.10;;;4.90;99.90;;;;;;5055614;28;20160;-41
2021/12/07 10:36:28;;;;;;;10.93;3.63;;;5.00;99.90;;;;;;5055161;28;20187;-42
2021/12/07 10:39:21;;;;;;;10.63;2.90;;;5.00;99.90;;;;;;5054822;28;20230;-42
2021/12/07 10:41:58;;;;;;;9.07;3.30;;;5.00;99.90;;;;;;5055141;28;20620;-40
2021/12/07 10:44:30;;;;;;;14.17;3.53;;;5.10;99.90;;;;;;5055441;28;20173;-46
2021/12/07 10:46:58;;;;;;;13.43;3.53;;;5.10;99.90;;;;;;5039122;28;20180;-46
2021/12/07 10:49:34;;;;;;;10.83;4.00;;;5.10;99.90;;;;;;5038864;28;20212;-46
2021/12/07 10:52:09;;;;;;;13.13;4.47;;;5.20;99.90;;;;;;5056551;28;20226;-48
2021/12/07 10:54:39;;;;;;;12.20;4.07;;;5.20;99.90;;;;;;5056966;28;20181;-47
2021/12/07 10:57:08;;;;;;;10.70;4.10;;;5.20;99.90;;;;;;5056663;28;20238;-47
2021/12/07 10:59:35;;;;;;;9.97;3.60;;;5.30;99.90;;;;;;5038614;28;20268;-47
2021/12/07 11:02:15;;;;;;;9.83;3.40;;;5.30;99.90;;;;;;5055826;28;20744;-46
2021/12/07 11:04:41;;;;;;;11.67;3.30;;;5.30;99.90;;;;;;5056271;28;20536;-47
2021/12/07 11:07:25;;;;;;;9.90;2.97;;;5.40;99.90;;;;;;5056219;28;20172;-46
2021/12/07 11:10:16;;;;;;;14.63;3.57;;;5.40;99.90;;;;;;5037508;28;20188;-47
2021/12/07 11:15:25;;;;;;;11.53;2.93;;;5.50;99.90;;;;;;5055940;28;20165;-47
2021/12/07 11:17:53;;;;;;;12.53;2.50;;;5.50;99.90;;;;;;5055572;28;20205;-47
2021/12/07 11:20:19;;;;;;;8.67;3.07;;;5.60;99.90;;;;;;5037980;28;20169;-47
2021/12/07 11:22:49;;;;;;;11.47;3.10;;;5.70;99.90;;;;;;5055412;28;20538;-47
2021/12/07 11:25:42;;;;;;;11.27;2.73;;;7.20;99.90;;;;;;5055662;28;20193;-47
2021/12/07 11:31:37;;;;;;;14.83;3.10;;;5.80;99.90;;;;;;5055062;28;20266;-47
2021/12/07 11:34:14;;;;;;;9.13;2.47;;;5.90;99.90;;;;;;5054884;28;20180;-47
2021/12/07 11:36:52;;;;;;;7.43;2.70;;;5.90;99.90;;;;;;5054742;28;20285;-47
2021/12/07 11:39:23;;;;;;;10.20;2.43;;;6.00;99.90;;;;;;5054894;28;20221;-47
2021/12/07 11:41:53;;;;;;;6.00;2.53;;;6.00;99.90;;;;;;5054942;28;20198;-46
2021/12/07 11:44:21;;;;;;;7.20;2.57;;;6.10;99.90;;;;;;5054666;28;20164;-47
2021/12/07 11:46:49;;;;;;;4.90;1.87;;;6.20;99.90;;;;;;5055086;28;20188;-46
2021/12/07 11:49:16;;;;;;;9.63;2.47;;;6.20;99.90;;;;;;5054592;28;20182;-47
2021/12/07 11:51:44;;;;;;;11.40;2.47;;;6.30;99.90;;;;;;5054688;28;20198;-47
2021/12/07 11:54:11;;;;;;;5.80;2.03;;;6.30;99.90;;;;;;5054872;28;20187;-47
2021/12/07 12:09:47;;;;;;;17.43;3.43;;;6.60;99.90;;;;;;5030727;28;20247;-43
2021/12/07 12:12:23;;;;;;;10.27;2.53;;;6.70;99.90;;;;;;5046480;28;20232;-40
2021/12/07 12:15:17;;;;;;;5.53;1.80;;;6.70;99.90;;;;;;5053370;28;20614;-40
2021/12/07 12:18:33;;;;;;;10.10;2.10;;;6.80;99.90;;;;;;5053192;28;20207;-41
2021/12/07 12:21:38;;;;;;;6.97;2.00;;;6.80;99.90;;;;;;5010234;28;20221;-40
2021/12/07 12:24:22;;;;;;;7.30;2.10;;;6.90;99.90;;;;;;5003520;28;20240;-43
2021/12/07 12:26:49;;;;;;;8.90;2.50;;;6.90;99.90;;;;;;5053382;28;20172;-40
2021/12/07 12:29:24;;;;;;;11.00;1.80;;;6.90;99.90;;;;;;5053986;28;20173;-42
2021/12/07 12:31:56;;;;;;;7.57;1.73;;;7.00;99.90;;;;;;5035296;28;20748;-43
2021/12/07 12:34:31;;;;;;;8.07;1.90;;;7.00;99.90;;;;;;5035554;28;20245;-39
2021/12/07 12:36:59;;;;;;;8.17;2.03;;;7.10;99.90;;;;;;5053059;28;20202;-44
2021/12/07 12:39:54;;;;;;;8.47;2.00;;;7.20;99.90;;;;;;5053064;28;20172;-42
2021/12/07 12:42:28;;;;;;;6.17;2.23;;;7.20;99.90;;;;;;5035139;28;20223;-41
2021/12/07 12:44:59;;;;;;;6.90;1.70;;;7.20;99.90;;;;;;5053253;28;20684;-44
2021/12/07 12:47:28;;;;;;;5.63;1.93;;;7.20;99.90;;;;;;5053242;28;20184;-40
2021/12/07 12:49:53;;;;;;;6.47;1.97;;;7.30;99.90;;;;;;5053386;28;20176;-44
2021/12/07 12:52:57;;;;;;;7.90;1.70;;;7.30;99.90;;;;;;5053254;28;20222;-41
2021/12/07 12:55:29;;;;;;;4.07;1.80;;;7.30;99.90;;;;;;5053129;28;20164;-40
2021/12/07 12:57:55;;;;;;;6.00;2.00;;;7.30;99.90;;;;;;5035244;28;20204;-41
2021/12/07 13:00:22;;;;;;;8.30;1.73;;;7.30;99.90;;;;;;5053103;28;20173;-41
2021/12/07 13:02:54;;;;;;;5.83;1.67;;;7.30;99.90;;;;;;5052845;28;20208;-41
2021/12/07 13:05:34;;;;;;;5.13;1.50;;;7.30;99.90;;;;;;5052767;28;20180;-42
2021/12/07 13:08:17;;;;;;;7.20;2.27;;;7.20;99.90;;;;;;5046275;28;20200;-41
2021/12/07 13:11:03;;;;;;;5.70;3.03;;;7.20;99.90;;;;;;5032881;28;20215;-41
2021/12/07 13:13:36;;;;;;;5.43;2.37;;;7.20;99.90;;;;;;5033187;28;20166;-40
2021/12/07 13:16:17;;;;;;;7.57;1.90;;;7.20;99.90;;;;;;5032884;28;20161;-41
2021/12/07 13:18:43;;;;;;;7.83;2.30;;;7.20;99.90;;;;;;5015083;28;20708;-44
2021/12/07 13:21:30;;;;;;;5.87;1.77;;;7.20;99.90;;;;;;5032907;28;20208;-41
2021/12/07 13:24:01;;;;;;;5.87;2.17;;;7.20;99.90;;;;;;5032992;28;20240;-42
2021/12/07 13:26:31;;;;;;;8.60;2.07;;;7.10;99.90;;;;;;5015104;28;20219;-41
2021/12/07 13:29:05;;;;;;;8.17;1.90;;;7.10;99.90;;;;;;5032741;28;20288;-40
2021/12/07 13:31:44;;;;;;;4.37;2.10;;;7.10;99.90;;;;;;5032636;28;20212;-42
2021/12/07 13:34:11;;;;;;;5.87;2.00;;;7.10;99.90;;;;;;5018510;28;20547;-41
2021/12/07 13:36:37;;;;;;;6.17;1.63;;;7.00;99.90;;;;;;5036137;28;20205;-45
2021/12/07 13:39:16;;;;;;;5.47;1.60;;;7.00;99.90;;;;;;5036414;28;20172;-45
2021/12/07 13:41:59;;;;;;;4.93;1.70;;;7.00;99.90;;;;;;5036249;28;20749;-48
2021/12/07 13:44:31;;;;;;;8.67;1.70;;;6.90;99.90;;;;;;5036357;28;20169;-45
2021/12/07 13:47:00;;;;;;;5.90;2.00;;;6.90;99.90;;;;;;5036295;28;20172;-49
2021/12/07 13:49:26;;;;;;;6.30;1.93;;;6.90;99.90;;;;;;5002172;28;20181;-48
2021/12/07 13:51:52;;;;;;;5.43;1.80;;;6.70;99.90;;;;;;5035230;28;20220;-48
2021/12/07 13:54:20;;;;;;;7.00;1.73;;;6.70;99.90;;;;;;5036266;28;20187;-47
2021/12/07 13:56:48;;;;;;;5.80;2.13;;;6.70;99.90;;;;;;5035985;28;20574;-47
2021/12/07 13:59:18;;;;;;;7.93;1.87;;;6.60;99.90;;;;;;5036098;28;20181;-47
2021/12/07 14:01:58;;;;;;;4.20;1.60;;;6.50;99.90;;;;;;5035659;28;20196;-46
2021/12/07 14:04:28;;;;;;;5.77;1.70;;;6.50;99.90;;;;;;5017048;28;20271;-47
2021/12/07 14:06:55;;;;;;;4.80;1.80;;;6.40;99.90;;;;;;5035461;28;20184;-48
2021/12/07 14:09:22;;;;;;;8.10;1.60;;;6.30;99.90;;;;;;5035504;28;20567;-45
2021/12/07 14:11:59;;;;;;;4.80;1.50;;;6.20;99.90;;;;;;5035557;28;20628;-47
2021/12/07 14:14:26;;;;;;;8.33;1.77;;;6.20;99.90;;;;;;5035500;28;20177;-47
2021/12/07 14:16:58;;;;;;;5.77;1.73;;;6.10;99.90;;;;;;5035521;28;20231;-48
2021/12/07 14:19:25;;;;;;;10.47;2.10;;;6.10;99.90;;;;;;5035933;28;20157;-47
2021/12/07 14:21:52;;;;;;;6.30;1.90;;;6.00;99.90;;;;;;5035501;28;20197;-46
2021/12/07 14:24:20;;;;;;;6.20;1.83;;;5.90;99.90;;;;;;5035419;28;20177;-46
2021/12/07 14:26:48;;;;;;;6.03;1.83;;;5.90;99.90;;;;;;5017566;28;20263;-47
2021/12/07 14:29:18;;;;;;;4.43;1.90;;;5.80;99.90;;;;;;5035270;28;20200;-46
2021/12/07 14:31:58;;;;;;;7.33;1.90;;;5.80;99.90;;;;;;5035156;28;20196;-47
2021/12/07 14:34:32;;;;;;;6.73;1.83;;;5.70;99.90;;;;;;5035198;28;20256;-47
2021/12/07 14:37:02;;;;;;;3.37;1.43;;;5.70;99.90;;;;;;5035317;28;20285;-47
2021/12/07 14:39:37;;;;;;;5.93;1.83;;;5.70;99.90;;;;;;5035320;28;20222;-47
2021/12/07 14:42:11;;;;;;;4.73;1.87;;;5.60;99.90;;;;;;5034907;28;20200;-46
2021/12/07 14:44:42;;;;;;;7.37;2.13;;;5.60;99.90;;;;;;5034242;28;20618;-46
2021/12/07 14:47:08;;;;;;;6.90;1.67;;;5.50;99.90;;;;;;5035286;28;20530;-47